createdAt,value
2019-06-26T00:00:01.375Z,17.00
2019-06-26T00:01:01.349Z,16.30
2019-06-26T00:02:01.334Z,16.90
2019-06-26T00:03:01.311Z,17.50
2019-06-26T00:04:01.294Z,16.60
2019-06-26T00:05:01.269Z,17.40
2019-06-26T00:06:01.248Z,17.00
2019-06-26T00:07:01.283Z,17.80
2019-06-26T00:08:01.209Z,17.20
2019-06-26T00:09:01.189Z,18.20
2019-06-26T00:10:01.326Z,17.70
2019-06-26T00:11:01.145Z,18.00
2019-06-26T00:12:01.129Z,18.90
2019-06-26T00:13:01.105Z,18.90
2019-06-26T00:14:01.092Z,19.30
2019-06-26T00:15:01.064Z,19.80
2019-06-26T00:16:01.043Z,18.50
2019-06-26T00:17:01.091Z,18.60
2019-06-26T00:18:01.004Z,18.40
2019-06-26T00:19:00.983Z,18.40
2019-06-26T00:20:00.962Z,18.40
2019-06-26T00:21:00.940Z,18.20
2019-06-26T00:22:00.929Z,19.00
2019-06-26T00:23:00.900Z,17.60
2019-06-26T00:24:00.879Z,17.90
2019-06-26T00:25:00.860Z,19.20
2019-06-26T00:26:00.852Z,18.00
2019-06-26T00:27:00.818Z,18.40
2019-06-26T00:28:00.798Z,18.60
2019-06-26T00:29:00.782Z,18.20
2019-06-26T00:30:00.757Z,18.50
2019-06-26T00:31:00.737Z,17.70
2019-06-26T00:32:00.715Z,18.10
2019-06-26T00:33:00.697Z,18.50
2019-06-26T00:34:00.685Z,18.20
2019-06-26T00:35:00.669Z,18.50
2019-06-26T00:36:00.635Z,18.30
2019-06-26T00:37:00.614Z,18.20
2019-06-26T00:38:00.593Z,18.20
2019-06-26T00:39:00.574Z,18.10
2019-06-26T00:40:00.551Z,19.40
2019-06-26T00:41:00.531Z,18.50
2019-06-26T00:42:00.510Z,18.20
2019-06-26T00:43:00.491Z,18.90
2019-06-26T00:44:00.526Z,18.00
2019-06-26T00:45:00.454Z,20.40
2019-06-26T00:46:00.426Z,18.30
2019-06-26T00:47:00.405Z,19.90
2019-06-26T00:48:00.389Z,18.90
2019-06-26T00:49:00.365Z,19.30
2019-06-26T00:50:00.343Z,19.70
2019-06-26T00:51:00.324Z,19.80
2019-06-26T00:52:00.301Z,19.70
2019-06-26T00:53:00.281Z,19.40
2019-06-26T00:54:00.287Z,19.70
2019-06-26T00:55:00.238Z,19.80
2019-06-26T00:56:00.218Z,19.20
2019-06-26T00:57:00.203Z,20.80
2019-06-26T00:58:00.187Z,19.00
2019-06-26T00:59:00.163Z,20.20
2019-06-26T01:00:00.172Z,20.20
2019-06-26T01:01:00.133Z,20.00
2019-06-26T01:02:00.119Z,18.60
2019-06-26T01:03:00.082Z,21.00
2019-06-26T01:04:00.050Z,19.50
2019-06-26T01:05:00.033Z,19.70
2019-06-26T01:06:00.010Z,20.00
2019-06-26T01:06:59.989Z,19.20
2019-06-26T01:07:59.975Z,19.60
2019-06-26T01:08:59.981Z,19.30
2019-06-26T01:09:59.927Z,18.80
2019-06-26T01:10:59.904Z,19.50
2019-06-26T01:11:59.882Z,19.90
2019-06-26T01:12:59.882Z,19.90
2019-06-26T01:13:59.843Z,18.90
2019-06-26T01:14:59.820Z,20.20
2019-06-26T01:15:59.801Z,19.10
2019-06-26T01:16:59.779Z,19.60
2019-06-26T01:17:59.757Z,19.50
2019-06-26T01:18:59.736Z,19.80
2019-06-26T01:19:59.732Z,19.70
2019-06-26T01:20:59.696Z,19.40
2019-06-26T01:21:59.683Z,20.30
2019-06-26T01:22:59.654Z,19.40
2019-06-26T01:23:59.640Z,20.30
2019-06-26T01:24:59.611Z,19.90
2019-06-26T01:25:59.590Z,19.90
2019-06-26T01:26:59.569Z,19.80
2019-06-26T01:27:59.547Z,19.70
2019-06-26T01:28:59.542Z,19.40
2019-06-26T01:29:59.508Z,18.20
2019-06-26T01:30:59.485Z,18.50
2019-06-26T01:31:59.466Z,18.60
2019-06-26T01:32:59.446Z,19.30
2019-06-26T01:33:59.422Z,18.90
2019-06-26T01:34:59.402Z,20.10
2019-06-26T01:35:59.380Z,20.80
2019-06-26T01:36:59.360Z,20.70
2019-06-26T01:37:59.341Z,21.30
2019-06-26T01:38:59.318Z,20.60
2019-06-26T01:39:59.295Z,21.30
2019-06-26T01:40:59.275Z,20.40
2019-06-26T01:41:59.266Z,21.60
2019-06-26T01:42:59.235Z,20.60
2019-06-26T01:44:13.721Z,20.30
2019-06-26T01:44:59.193Z,20.40
2019-06-26T01:45:59.173Z,21.30
2019-06-26T01:46:59.154Z,21.50
2019-06-26T01:47:59.128Z,21.30
2019-06-26T01:48:59.108Z,21.00
2019-06-26T01:49:59.087Z,20.30
2019-06-26T01:50:59.066Z,20.90
2019-06-26T01:51:59.047Z,20.50
2019-06-26T01:52:59.023Z,20.40
2019-06-26T01:53:59.057Z,21.30
2019-06-26T01:54:58.981Z,20.80
2019-06-26T01:55:58.960Z,21.60
2019-06-26T01:56:58.940Z,21.90
2019-06-26T01:57:58.920Z,21.80
2019-06-26T01:58:58.900Z,21.50
2019-06-26T01:59:58.876Z,22.60
2019-06-26T02:00:58.870Z,21.30
2019-06-26T02:01:58.834Z,20.40
2019-06-26T02:02:58.818Z,21.80
2019-06-26T02:03:58.791Z,20.60
2019-06-26T02:04:58.771Z,22.10
2019-06-26T02:05:58.755Z,21.60
2019-06-26T02:06:58.727Z,21.60
2019-06-26T02:07:58.708Z,21.50
2019-06-26T02:08:58.686Z,21.80
2019-06-26T02:09:58.666Z,21.10
2019-06-26T02:10:58.643Z,20.40
2019-06-26T02:12:00.521Z,20.90
2019-06-26T02:12:58.602Z,21.10
2019-06-26T02:13:58.580Z,21.70
2019-06-26T02:14:58.561Z,20.60
2019-06-26T02:15:58.537Z,21.20
2019-06-26T02:16:58.518Z,21.10
2019-06-26T02:17:58.496Z,23.50
2019-06-26T02:18:58.476Z,21.40
2019-06-26T02:19:58.454Z,21.40
2019-06-26T02:20:58.445Z,21.00
2019-06-26T02:21:58.412Z,19.70
2019-06-26T02:22:58.390Z,21.10
2019-06-26T02:23:58.369Z,22.30
2019-06-26T02:24:58.351Z,20.50
2019-06-26T02:25:58.328Z,21.40
2019-06-26T02:26:58.305Z,20.40
2019-06-26T02:27:58.286Z,20.40
2019-06-26T02:28:58.264Z,20.60
2019-06-26T02:29:58.245Z,20.30
2019-06-26T02:30:58.225Z,20.60
2019-06-26T02:31:58.204Z,20.70
2019-06-26T02:32:58.180Z,20.40
2019-06-26T02:33:58.172Z,20.70
2019-06-26T02:34:58.137Z,22.10
2019-06-26T02:35:58.115Z,21.70
2019-06-26T02:36:58.096Z,19.90
2019-06-26T02:37:58.075Z,20.80
2019-06-26T02:38:58.055Z,21.30
2019-06-26T02:39:58.036Z,19.50
2019-06-26T02:40:58.011Z,20.60
2019-06-26T02:41:57.991Z,20.10
2019-06-26T02:42:57.967Z,20.30
2019-06-26T02:43:57.949Z,20.60
2019-06-26T02:44:57.927Z,20.80
2019-06-26T02:45:57.903Z,21.10
2019-06-26T02:47:17.662Z,19.90
2019-06-26T02:47:57.862Z,19.70
2019-06-26T02:48:57.841Z,20.60
2019-06-26T02:49:57.820Z,20.90
2019-06-26T02:50:57.798Z,20.20
2019-06-26T02:51:57.784Z,20.20
2019-06-26T02:52:57.756Z,20.70
2019-06-26T02:53:57.735Z,20.20
2019-06-26T02:54:57.714Z,19.80
2019-06-26T02:55:57.693Z,20.90
2019-06-26T02:56:57.676Z,19.60
2019-06-26T02:57:57.649Z,19.70
2019-06-26T02:58:57.630Z,19.40
2019-06-26T02:59:57.608Z,18.70
2019-06-26T03:00:57.585Z,19.50
2019-06-26T03:01:57.570Z,19.70
2019-06-26T03:02:57.544Z,19.00
2019-06-26T03:03:57.535Z,19.20
2019-06-26T03:04:57.547Z,19.20
2019-06-26T03:05:57.485Z,19.00
2019-06-26T03:06:57.471Z,18.90
2019-06-26T03:07:57.441Z,18.80
2019-06-26T03:08:57.416Z,19.10
2019-06-26T03:09:57.395Z,19.30
2019-06-26T03:10:57.372Z,19.60
2019-06-26T03:11:57.352Z,19.30
2019-06-26T03:12:57.330Z,19.70
2019-06-26T03:13:57.309Z,18.90
2019-06-26T03:15:08.376Z,18.60
2019-06-26T03:15:57.266Z,19.00
2019-06-26T03:16:57.247Z,19.20
2019-06-26T03:17:57.226Z,19.80
2019-06-26T03:18:57.203Z,19.20
2019-06-26T03:19:57.182Z,19.20
2019-06-26T03:20:57.161Z,19.00
2019-06-26T03:21:57.141Z,19.70
2019-06-26T03:22:57.119Z,18.40
2019-06-26T03:23:57.097Z,19.80
2019-06-26T03:24:57.092Z,19.50
2019-06-26T03:25:57.061Z,20.80
2019-06-26T03:26:57.036Z,19.40
2019-06-26T03:27:57.013Z,18.70
2019-06-26T03:28:56.993Z,18.90
2019-06-26T03:29:56.971Z,19.50
2019-06-26T03:30:56.949Z,18.80
2019-06-26T03:31:56.928Z,19.60
2019-06-26T03:32:56.910Z,18.90
2019-06-26T03:33:56.890Z,18.70
2019-06-26T03:34:56.865Z,19.60
2019-06-26T03:35:56.843Z,19.00
2019-06-26T03:36:56.832Z,19.10
2019-06-26T03:37:56.808Z,19.30
2019-06-26T03:38:56.828Z,19.30
2019-06-26T03:39:56.760Z,19.10
2019-06-26T03:40:56.739Z,18.90
2019-06-26T03:41:56.718Z,19.00
2019-06-26T03:42:56.736Z,19.40
2019-06-26T03:43:56.676Z,19.20
2019-06-26T03:44:56.662Z,19.50
2019-06-26T03:45:56.635Z,19.10
2019-06-26T03:46:56.613Z,19.50
2019-06-26T03:47:56.593Z,20.50
2019-06-26T03:48:56.579Z,19.70
2019-06-26T03:49:56.558Z,19.70
2019-06-26T03:50:56.529Z,18.70
2019-06-26T03:51:56.509Z,20.60
2019-06-26T03:52:56.487Z,20.50
2019-06-26T03:53:56.466Z,19.40
2019-06-26T03:54:56.446Z,19.70
2019-06-26T03:55:56.423Z,20.30
2019-06-26T03:56:56.404Z,20.00
2019-06-26T03:57:56.383Z,19.40
2019-06-26T03:58:56.362Z,19.80
2019-06-26T03:59:56.339Z,19.80
2019-06-26T04:00:56.318Z,19.10
2019-06-26T04:01:56.298Z,19.70
2019-06-26T04:02:56.279Z,18.30
2019-06-26T04:03:57.463Z,18.10
2019-06-26T04:04:56.235Z,17.00
2019-06-26T04:05:56.215Z,18.20
2019-06-26T04:06:56.192Z,17.70
2019-06-26T04:07:56.172Z,16.60
2019-06-26T04:08:56.165Z,17.10
2019-06-26T04:09:56.133Z,16.40
2019-06-26T04:10:56.110Z,16.30
2019-06-26T04:11:56.089Z,18.20
2019-06-26T04:12:56.087Z,17.60
2019-06-26T04:13:56.049Z,17.10
2019-06-26T04:14:56.028Z,17.10
2019-06-26T04:15:56.006Z,17.40
2019-06-26T04:16:55.989Z,18.20
2019-06-26T04:17:55.966Z,17.20
2019-06-26T04:18:55.943Z,18.00
2019-06-26T04:19:55.927Z,17.80
2019-06-26T04:20:55.905Z,17.70
2019-06-26T04:21:55.884Z,17.40
2019-06-26T04:22:55.863Z,18.80
2019-06-26T04:23:55.843Z,20.00
2019-06-26T04:24:55.823Z,19.80
2019-06-26T04:25:55.803Z,19.20
2019-06-26T04:26:55.781Z,18.80
2019-06-26T04:27:55.763Z,18.10
2019-06-26T04:28:55.741Z,19.50
2019-06-26T04:29:55.721Z,19.60
2019-06-26T04:30:55.700Z,18.90
2019-06-26T04:31:55.731Z,18.40
2019-06-26T04:32:55.662Z,18.70
2019-06-26T04:33:55.641Z,17.70
2019-06-26T04:34:55.621Z,17.80
2019-06-26T04:35:55.602Z,18.20
2019-06-26T04:36:55.583Z,19.20
2019-06-26T04:37:55.567Z,18.30
2019-06-26T04:38:55.540Z,16.90
2019-06-26T04:39:55.523Z,17.30
2019-06-26T04:40:55.501Z,17.40
2019-06-26T04:41:55.484Z,17.20
2019-06-26T04:42:55.464Z,17.80
2019-06-26T04:43:55.488Z,18.00
2019-06-26T04:44:55.424Z,17.70
2019-06-26T04:45:58.578Z,16.70
2019-06-26T04:46:55.385Z,17.30
2019-06-26T04:47:55.365Z,17.40
2019-06-26T04:48:55.349Z,17.80
2019-06-26T04:49:55.326Z,16.50
2019-06-26T04:50:55.314Z,18.50
2019-06-26T04:51:55.287Z,18.30
2019-06-26T04:52:55.269Z,19.20
2019-06-26T04:53:55.805Z,17.70
2019-06-26T04:54:55.229Z,18.20
2019-06-26T04:55:55.211Z,18.20
2019-06-26T04:56:55.193Z,18.00
2019-06-26T04:57:55.177Z,18.80
2019-06-26T04:58:55.152Z,18.60
2019-06-26T04:59:55.134Z,18.60
2019-06-26T05:00:55.119Z,18.80
2019-06-26T05:01:55.129Z,18.30
2019-06-26T05:02:55.077Z,19.30
2019-06-26T05:03:55.059Z,19.60
2019-06-26T05:04:55.041Z,19.80
2019-06-26T05:05:55.023Z,21.40
2019-06-26T05:06:55.003Z,20.40
2019-06-26T05:07:54.985Z,19.60
2019-06-26T05:08:54.966Z,18.70
2019-06-26T05:09:54.949Z,18.80
2019-06-26T05:10:54.929Z,19.40
2019-06-26T05:11:54.918Z,19.50
2019-06-26T05:12:54.894Z,19.10
2019-06-26T05:13:54.875Z,18.80
2019-06-26T05:14:54.857Z,19.00
2019-06-26T05:15:54.838Z,18.30
2019-06-26T05:16:54.820Z,17.70
2019-06-26T05:17:54.801Z,18.20
2019-06-26T05:18:54.787Z,18.30
2019-06-26T05:19:54.765Z,18.00
2019-06-26T05:20:54.747Z,17.80
2019-06-26T05:21:54.731Z,17.90
2019-06-26T05:22:54.712Z,17.80
2019-06-26T05:23:54.693Z,17.90
2019-06-26T05:24:54.679Z,18.10
2019-06-26T05:25:54.659Z,17.60
2019-06-26T05:26:54.642Z,16.30
2019-06-26T05:27:54.630Z,17.50
2019-06-26T05:28:54.613Z,16.20
2019-06-26T05:29:54.648Z,16.40
2019-06-26T05:30:54.576Z,15.10
2019-06-26T05:31:54.560Z,14.30
2019-06-26T05:32:54.549Z,14.50
2019-06-26T05:33:54.540Z,14.00
2019-06-26T05:34:54.552Z,13.80
2019-06-26T05:35:54.500Z,14.00
2019-06-26T05:36:54.485Z,15.10
2019-06-26T05:37:54.472Z,13.20
2019-06-26T05:38:54.456Z,12.00
2019-06-26T05:39:54.899Z,12.20
2019-06-26T05:40:54.428Z,11.60
2019-06-26T05:41:54.415Z,11.40
2019-06-26T05:42:54.400Z,11.60
2019-06-26T05:43:54.387Z,10.70
2019-06-26T05:44:54.373Z,13.00
2019-06-26T05:45:54.361Z,11.60
2019-06-26T05:46:54.351Z,11.30
2019-06-26T05:47:54.335Z,12.20
2019-06-26T05:48:54.321Z,12.40
2019-06-26T05:49:54.308Z,11.80
2019-06-26T05:50:54.297Z,12.00
2019-06-26T05:51:54.284Z,12.70
2019-06-26T05:52:54.271Z,11.40
2019-06-26T05:53:54.290Z,12.60
2019-06-26T05:54:54.247Z,11.20
2019-06-26T05:55:54.234Z,11.80
2019-06-26T05:56:54.228Z,12.20
2019-06-26T05:57:54.265Z,10.90
2019-06-26T05:58:54.201Z,12.80
2019-06-26T05:59:54.188Z,11.60
2019-06-26T06:00:54.176Z,12.50
2019-06-26T06:01:54.167Z,12.10
2019-06-26T06:02:54.335Z,12.60
2019-06-26T06:03:54.144Z,11.70
2019-06-26T06:04:54.133Z,11.90
2019-06-26T06:05:54.120Z,11.50
2019-06-26T06:06:54.109Z,13.20
2019-06-26T06:07:54.117Z,11.50
2019-06-26T06:08:54.087Z,11.50
2019-06-26T06:09:54.090Z,12.00
2019-06-26T06:10:57.184Z,12.40
2019-06-26T06:11:54.057Z,14.90
2019-06-26T06:12:54.047Z,12.80
2019-06-26T06:13:54.035Z,11.60
2019-06-26T06:14:54.027Z,12.30
2019-06-26T06:15:54.017Z,12.00
2019-06-26T06:16:54.006Z,11.50
2019-06-26T06:17:54.005Z,10.70
2019-06-26T06:18:53.986Z,11.10
2019-06-26T06:19:53.995Z,11.80
2019-06-26T06:20:53.967Z,14.80
2019-06-26T06:21:53.956Z,10.60
2019-06-26T06:22:53.985Z,11.10
2019-06-26T06:23:53.998Z,11.10
2019-06-26T06:24:53.935Z,11.50
2019-06-26T06:25:53.919Z,12.80
2019-06-26T06:26:53.908Z,10.50
2019-06-26T06:27:53.898Z,12.00
2019-06-26T06:28:53.895Z,11.60
2019-06-26T06:29:53.882Z,10.60
2019-06-26T06:30:53.871Z,11.30
2019-06-26T06:31:53.876Z,13.20
2019-06-26T06:32:53.853Z,11.40
2019-06-26T06:33:53.844Z,11.10
2019-06-26T06:34:53.839Z,10.90
2019-06-26T06:35:53.830Z,10.40
2019-06-26T06:36:53.819Z,10.40
2019-06-26T06:37:53.811Z,12.50
2019-06-26T06:38:53.801Z,13.20
2019-06-26T06:39:53.796Z,11.60
2019-06-26T06:40:53.790Z,14.90
2019-06-26T06:41:53.776Z,11.40
2019-06-26T06:42:53.768Z,11.40
2019-06-26T06:43:53.759Z,11.70
2019-06-26T06:44:53.750Z,10.90
2019-06-26T06:45:53.812Z,11.40
2019-06-26T06:47:03.392Z,10.20
2019-06-26T06:47:53.729Z,10.80
2019-06-26T06:48:53.723Z,11.20
2019-06-26T06:49:53.723Z,12.00
2019-06-26T06:50:53.702Z,10.30
2019-06-26T06:51:53.693Z,10.10
2019-06-26T06:52:53.691Z,11.40
2019-06-26T06:53:53.682Z,12.60
2019-06-26T06:54:53.762Z,10.60
2019-06-26T06:55:53.661Z,12.40
2019-06-26T06:56:53.688Z,11.10
2019-06-26T06:57:53.650Z,12.00
2019-06-26T06:58:53.638Z,10.50
2019-06-26T06:59:53.631Z,10.40
2019-06-26T07:00:53.675Z,13.70
2019-06-26T07:01:53.615Z,11.50
2019-06-26T07:02:53.610Z,9.30
2019-06-26T07:03:53.603Z,10.10
2019-06-26T07:04:53.592Z,11.20
2019-06-26T07:05:53.586Z,12.40
2019-06-26T07:06:53.578Z,10.90
2019-06-26T07:07:53.569Z,10.60
2019-06-26T07:08:53.581Z,12.80
2019-06-26T07:09:53.555Z,11.60
2019-06-26T07:10:53.548Z,10.10
2019-06-26T07:11:53.541Z,10.90
2019-06-26T07:12:53.534Z,11.60
2019-06-26T07:13:53.528Z,11.40
2019-06-26T07:14:53.522Z,11.80
2019-06-26T07:15:53.514Z,11.00
2019-06-26T07:16:53.505Z,10.40
2019-06-26T07:17:53.498Z,10.70
2019-06-26T07:18:53.491Z,10.60
2019-06-26T07:19:53.485Z,10.90
2019-06-26T07:20:53.479Z,11.80
2019-06-26T07:21:53.472Z,10.80
2019-06-26T07:22:53.463Z,10.30
2019-06-26T07:23:53.469Z,10.80
2019-06-26T07:24:53.456Z,14.60
2019-06-26T07:25:53.442Z,12.10
2019-06-26T07:26:53.435Z,11.40
2019-06-26T07:27:53.441Z,10.70
2019-06-26T07:28:53.421Z,13.50
2019-06-26T07:29:53.418Z,9.60
2019-06-26T07:30:53.406Z,11.40
2019-06-26T07:31:53.401Z,10.00
2019-06-26T07:32:53.392Z,9.90
2019-06-26T07:33:55.748Z,9.90
2019-06-26T07:34:53.377Z,10.80
2019-06-26T07:35:53.373Z,10.00
2019-06-26T07:36:53.377Z,9.30
2019-06-26T07:37:53.365Z,8.70
2019-06-26T07:38:53.361Z,10.20
2019-06-26T07:39:57.590Z,13.30
2019-06-26T07:40:53.337Z,10.10
2019-06-26T07:41:53.330Z,9.60
2019-06-26T07:42:53.329Z,9.80
2019-06-26T07:43:53.319Z,11.20
2019-06-26T07:44:53.311Z,10.20
2019-06-26T07:45:53.305Z,10.10
2019-06-26T07:46:53.297Z,10.90
2019-06-26T07:47:53.291Z,9.50
2019-06-26T07:48:53.285Z,11.90
2019-06-26T07:49:53.278Z,11.00
2019-06-26T07:50:53.272Z,11.10
2019-06-26T07:51:53.269Z,11.40
2019-06-26T07:52:53.285Z,11.00
2019-06-26T07:53:53.252Z,12.30
2019-06-26T07:54:53.249Z,10.90
2019-06-26T07:55:53.238Z,11.40
2019-06-26T07:56:53.231Z,13.00
2019-06-26T07:57:53.227Z,11.30
2019-06-26T07:58:53.218Z,11.20
2019-06-26T07:59:53.212Z,10.60
2019-06-26T08:00:53.251Z,13.10
2019-06-26T08:01:53.201Z,11.40
2019-06-26T08:02:53.191Z,12.90
2019-06-26T08:03:53.185Z,10.70
2019-06-26T08:04:53.181Z,11.90
2019-06-26T08:05:53.171Z,11.90
2019-06-26T08:06:53.167Z,11.70
2019-06-26T08:07:53.155Z,13.80
2019-06-26T08:08:53.170Z,11.80
2019-06-26T08:09:53.149Z,13.50
2019-06-26T08:10:53.142Z,11.70
2019-06-26T08:11:53.130Z,14.70
2019-06-26T08:12:53.122Z,13.20
2019-06-26T08:13:53.118Z,11.10
2019-06-26T08:14:53.105Z,12.10
2019-06-26T08:15:53.099Z,11.40
2019-06-26T08:16:53.092Z,12.40
2019-06-26T08:18:00.569Z,12.70
2019-06-26T08:18:53.077Z,11.30
2019-06-26T08:19:53.069Z,13.10
2019-06-26T08:21:10.854Z,10.90
2019-06-26T08:21:53.062Z,11.70
2019-06-26T08:22:53.049Z,11.30
2019-06-26T08:23:53.096Z,12.20
2019-06-26T08:24:53.128Z,12.00
2019-06-26T08:25:53.032Z,11.60
2019-06-26T08:26:53.036Z,12.80
2019-06-26T08:27:53.020Z,11.80
2019-06-26T08:28:53.009Z,11.10
2019-06-26T08:29:53.012Z,11.40
2019-06-26T08:30:52.993Z,11.30
2019-06-26T08:31:52.986Z,11.70
2019-06-26T08:32:52.980Z,10.90
2019-06-26T08:33:52.972Z,12.70
2019-06-26T08:34:52.965Z,11.50
2019-06-26T08:35:52.962Z,10.90
2019-06-26T08:36:52.954Z,11.30
2019-06-26T08:38:09.001Z,11.40
2019-06-26T08:38:52.937Z,11.20
2019-06-26T08:39:52.931Z,10.60
2019-06-26T08:40:52.923Z,10.20
2019-06-26T08:41:52.918Z,11.30
2019-06-26T08:42:52.947Z,10.60
2019-06-26T08:43:52.903Z,9.80
2019-06-26T08:44:52.905Z,10.20
2019-06-26T08:45:52.893Z,10.00
2019-06-26T08:46:52.885Z,9.80
2019-06-26T08:47:52.879Z,10.10
2019-06-26T08:48:52.873Z,13.20
2019-06-26T08:49:52.871Z,13.60
2019-06-26T08:50:52.864Z,10.60
2019-06-26T08:51:52.854Z,10.40
2019-06-26T08:52:52.847Z,11.80
2019-06-26T08:53:52.840Z,11.20
2019-06-26T08:54:52.837Z,10.40
2019-06-26T08:55:52.828Z,10.30
2019-06-26T08:56:52.918Z,10.60
2019-06-26T08:57:52.818Z,10.20
2019-06-26T08:58:52.811Z,10.10
2019-06-26T08:59:52.801Z,10.10
2019-06-26T09:00:52.798Z,13.90
2019-06-26T09:01:52.790Z,9.50
2019-06-26T09:02:52.782Z,9.70
2019-06-26T09:03:52.774Z,9.00
2019-06-26T09:04:52.771Z,9.50
2019-06-26T09:05:52.761Z,8.50
2019-06-26T09:06:52.753Z,9.50
2019-06-26T09:07:52.779Z,9.30
2019-06-26T09:08:52.740Z,9.90
2019-06-26T09:09:52.735Z,8.60
2019-06-26T09:10:52.730Z,8.40
2019-06-26T09:11:52.720Z,10.00
2019-06-26T09:12:52.715Z,9.00
2019-06-26T09:13:52.709Z,10.70
2019-06-26T09:14:52.699Z,9.20
2019-06-26T09:15:52.692Z,7.70
2019-06-26T09:16:52.699Z,7.30
2019-06-26T09:17:52.679Z,8.40
2019-06-26T09:18:52.671Z,8.80
2019-06-26T09:19:52.685Z,8.60
2019-06-26T09:20:52.660Z,9.80
2019-06-26T09:21:52.661Z,9.00
2019-06-26T09:22:52.643Z,8.90
2019-06-26T09:23:52.638Z,8.40
2019-06-26T09:24:52.650Z,7.90
2019-06-26T09:25:52.624Z,8.30
2019-06-26T09:26:52.615Z,8.90
2019-06-26T09:27:52.612Z,8.40
2019-06-26T09:28:52.603Z,9.90
2019-06-26T09:29:52.596Z,10.00
2019-06-26T09:30:52.588Z,8.70
2019-06-26T09:31:52.581Z,11.40
2019-06-26T09:32:52.573Z,10.80
2019-06-26T09:33:52.582Z,8.40
2019-06-26T09:34:52.563Z,9.70
2019-06-26T09:35:52.552Z,8.80
2019-06-26T09:36:52.543Z,9.40
2019-06-26T09:37:52.537Z,9.40
2019-06-26T09:38:52.531Z,8.10
2019-06-26T09:39:52.528Z,10.90
2019-06-26T09:40:52.514Z,10.40
2019-06-26T09:41:52.508Z,9.40
2019-06-26T09:42:52.501Z,8.20
2019-06-26T09:43:52.494Z,8.00
2019-06-26T09:44:52.577Z,8.70
2019-06-26T09:45:52.483Z,9.10
2019-06-26T09:46:52.476Z,8.70
2019-06-26T09:47:52.468Z,9.50
2019-06-26T09:48:53.592Z,9.20
2019-06-26T09:49:52.449Z,10.40
2019-06-26T09:50:52.442Z,8.70
2019-06-26T09:51:52.466Z,8.50
2019-06-26T09:52:52.446Z,8.80
2019-06-26T09:53:52.457Z,11.70
2019-06-26T09:54:52.411Z,8.90
2019-06-26T09:55:52.420Z,9.90
2019-06-26T09:56:52.401Z,9.00
2019-06-26T09:57:52.391Z,8.70
2019-06-26T09:58:52.382Z,11.40
2019-06-26T09:59:52.374Z,8.40
2019-06-26T10:00:52.378Z,7.90
2019-06-26T10:01:52.362Z,12.10
2019-06-26T10:02:52.354Z,7.60
2019-06-26T10:03:52.346Z,9.20
2019-06-26T10:04:52.339Z,9.20
2019-06-26T10:05:52.333Z,9.80
2019-06-26T10:06:52.333Z,8.00
2019-06-26T10:07:52.318Z,8.00
2019-06-26T10:08:54.322Z,10.30
2019-06-26T10:09:52.307Z,9.20
2019-06-26T10:10:52.309Z,8.60
2019-06-26T10:11:52.307Z,10.10
2019-06-26T10:12:52.287Z,7.40
2019-06-26T10:13:52.277Z,7.80
2019-06-26T10:14:52.273Z,7.70
2019-06-26T10:15:52.262Z,8.90
2019-06-26T10:16:52.264Z,7.90
2019-06-26T10:17:52.251Z,10.70
2019-06-26T10:19:08.654Z,10.70
2019-06-26T10:19:54.089Z,9.70
2019-06-26T10:20:52.228Z,9.20
2019-06-26T10:21:52.222Z,8.10
2019-06-26T10:22:52.213Z,7.90
2019-06-26T10:23:52.207Z,9.60
2019-06-26T10:24:52.198Z,9.70
2019-06-26T10:25:52.192Z,8.50
2019-06-26T10:26:52.185Z,8.40
2019-06-26T10:27:52.184Z,7.70
2019-06-26T10:28:52.493Z,15.70
2019-06-26T10:29:52.163Z,10.80
2019-06-26T10:30:52.164Z,9.30
2019-06-26T10:31:52.237Z,8.10
2019-06-26T10:32:52.139Z,7.70
2019-06-26T10:33:52.130Z,7.90
2019-06-26T10:34:52.200Z,8.10
2019-06-26T10:35:52.114Z,11.60
2019-06-26T10:36:52.113Z,9.10
2019-06-26T10:37:52.096Z,9.50
2019-06-26T10:38:52.089Z,10.80
2019-06-26T10:39:52.080Z,8.20
2019-06-26T10:40:52.072Z,8.30
2019-06-26T10:41:54.865Z,10.20
2019-06-26T10:42:52.055Z,13.10
2019-06-26T10:43:52.253Z,10.70
2019-06-26T10:44:52.037Z,11.70
2019-06-26T10:45:52.030Z,7.50
2019-06-26T10:46:52.023Z,10.10
2019-06-26T10:47:52.047Z,10.20
2019-06-26T10:48:52.038Z,9.80
2019-06-26T10:49:51.998Z,9.80
2019-06-26T10:50:58.109Z,10.80
2019-06-26T10:51:52.011Z,11.70
2019-06-26T10:52:51.973Z,7.70
2019-06-26T10:53:51.963Z,9.10
2019-06-26T10:54:51.955Z,10.40
2019-06-26T10:55:51.946Z,9.00
2019-06-26T10:56:51.939Z,9.10
2019-06-26T10:57:51.930Z,8.60
2019-06-26T10:58:51.926Z,11.10
2019-06-26T10:59:55.545Z,9.50
2019-06-26T11:00:51.908Z,10.20
2019-06-26T11:01:51.901Z,8.00
2019-06-26T11:02:51.890Z,12.30
2019-06-26T11:03:51.917Z,8.60
2019-06-26T11:04:51.879Z,12.20
2019-06-26T11:05:51.901Z,10.00
2019-06-26T11:06:51.861Z,8.90
2019-06-26T11:07:51.851Z,9.60
2019-06-26T11:08:51.843Z,8.00
2019-06-26T11:09:51.836Z,8.20
2019-06-26T11:10:51.831Z,8.60
2019-06-26T11:11:51.821Z,9.50
2019-06-26T11:12:51.817Z,10.50
2019-06-26T11:13:51.805Z,9.10
2019-06-26T11:14:51.797Z,11.20
2019-06-26T11:15:51.789Z,10.40
2019-06-26T11:16:51.795Z,7.40
2019-06-26T11:17:51.785Z,6.80
2019-06-26T11:18:51.967Z,11.90
2019-06-26T11:19:55.145Z,12.70
2019-06-26T11:20:51.752Z,12.30
2019-06-26T11:21:51.777Z,9.40
2019-06-26T11:22:51.759Z,8.50
2019-06-26T11:23:51.730Z,9.90
2019-06-26T11:24:51.721Z,9.50
2019-06-26T11:25:51.714Z,10.70
2019-06-26T11:26:51.710Z,6.00
2019-06-26T11:27:51.701Z,6.60
2019-06-26T11:28:51.693Z,7.50
2019-06-26T11:29:51.702Z,7.40
2019-06-26T11:30:51.682Z,7.40
2019-06-26T11:31:51.671Z,7.50
2019-06-26T11:32:51.664Z,9.70
2019-06-26T11:33:51.665Z,8.00
2019-06-26T11:34:51.648Z,9.00
2019-06-26T11:35:51.642Z,12.10
2019-06-26T11:37:03.220Z,7.00
2019-06-26T11:37:51.629Z,6.50
2019-06-26T11:38:51.618Z,10.10
2019-06-26T11:39:51.750Z,11.90
2019-06-26T11:40:51.603Z,10.30
2019-06-26T11:41:51.597Z,8.10
2019-06-26T11:42:51.587Z,9.60
2019-06-26T11:43:51.580Z,7.10
2019-06-26T11:44:51.573Z,8.40
2019-06-26T11:45:51.565Z,9.20
2019-06-26T11:46:51.557Z,9.20
2019-06-26T11:47:51.553Z,6.90
2019-06-26T11:48:51.543Z,7.30
2019-06-26T11:49:59.843Z,9.60
2019-06-26T11:50:51.528Z,7.60
2019-06-26T11:51:51.519Z,12.20
2019-06-26T11:52:51.511Z,8.80
2019-06-26T11:53:51.508Z,6.70
2019-06-26T11:55:01.758Z,6.70
2019-06-26T11:55:51.492Z,8.30
2019-06-26T11:56:51.480Z,10.00
2019-06-26T11:57:51.477Z,9.80
2019-06-26T11:58:51.464Z,8.60
2019-06-26T11:59:51.504Z,8.20
2019-06-26T12:00:51.449Z,9.10
2019-06-26T12:01:51.495Z,8.40
2019-06-26T12:02:51.435Z,6.10
2019-06-26T12:03:51.424Z,6.50
2019-06-26T12:04:51.421Z,6.10
2019-06-26T12:05:51.409Z,6.80
2019-06-26T12:06:51.403Z,7.10
2019-06-26T12:07:51.393Z,7.20
2019-06-26T12:08:51.386Z,8.70
2019-06-26T12:09:51.459Z,9.20
2019-06-26T12:10:51.373Z,11.00
2019-06-26T12:11:51.361Z,6.80
2019-06-26T12:12:51.354Z,7.20
2019-06-26T12:13:51.347Z,7.10
2019-06-26T12:14:51.338Z,8.40
2019-06-26T12:15:51.332Z,10.50
2019-06-26T12:16:51.324Z,7.90
2019-06-26T12:17:51.315Z,6.10
2019-06-26T12:18:51.307Z,7.80
2019-06-26T12:19:51.298Z,9.20
2019-06-26T12:20:51.289Z,8.60
2019-06-26T12:21:51.283Z,8.90
2019-06-26T12:22:51.281Z,11.40
2019-06-26T12:23:51.268Z,7.70
2019-06-26T12:24:51.261Z,9.00
2019-06-26T12:25:51.252Z,8.30
2019-06-26T12:26:51.243Z,7.10
2019-06-26T12:27:51.236Z,8.40
2019-06-26T12:28:51.228Z,6.70
2019-06-26T12:29:51.223Z,6.30
2019-06-26T12:30:51.219Z,6.10
2019-06-26T12:31:51.204Z,7.20
2019-06-26T12:33:02.094Z,8.20
2019-06-26T12:33:51.289Z,7.10
2019-06-26T12:34:51.181Z,8.30
2019-06-26T12:35:51.172Z,8.20
2019-06-26T12:36:51.162Z,7.10
2019-06-26T12:37:51.265Z,7.60
2019-06-26T12:38:51.190Z,7.90
2019-06-26T12:39:51.140Z,8.10
2019-06-26T12:40:51.132Z,6.00
2019-06-26T12:41:51.124Z,7.40
2019-06-26T12:42:54.522Z,6.30
2019-06-26T12:43:51.111Z,8.20
2019-06-26T12:44:51.101Z,5.90
2019-06-26T12:45:51.092Z,7.20
2019-06-26T12:46:51.086Z,5.30
2019-06-26T12:47:51.076Z,7.40
2019-06-26T12:48:51.076Z,5.70
2019-06-26T12:49:51.061Z,7.90
2019-06-26T12:50:51.051Z,7.40
2019-06-26T12:51:51.044Z,5.60
2019-06-26T12:52:51.039Z,8.70
2019-06-26T12:53:51.030Z,6.10
2019-06-26T12:54:51.036Z,5.40
2019-06-26T12:55:51.013Z,7.50
2019-06-26T12:56:51.006Z,10.80
2019-06-26T12:57:50.997Z,6.30
2019-06-26T12:58:50.991Z,8.50